Time;durP1;ratioP1;P1;durP2;ratioP2;P2;SDS_P1;SDS_P2;PMS_P1;PMS_P2;Temp;Humidity;BMP_temperature;BMP_pressure;BME280_temperature;BME280_humidity;BME280_pressure;Samples;Min_cycle;Max_cycle;Signal;HPM_P1;HPM_P2
2021/07/07 00:00:36;;;;;;;2.57;2.37;;;16.40;99.90;;;;;;5056138;28;20677;-94
2021/07/07 00:03:03;;;;;;;4.10;3.07;;;16.40;99.90;;;;;;5046926;28;20742;-94
2021/07/07 00:05:32;;;;;;;3.43;2.20;;;16.40;99.90;;;;;;5045529;28;20641;-94
2021/07/07 00:08:02;;;;;;;2.20;1.83;;;16.30;99.90;;;;;;5042984;28;20622;-93
2021/07/07 00:10:33;;;;;;;3.57;2.17;;;16.30;99.90;;;;;;5055556;28;20631;-95
2021/07/07 00:13:02;;;;;;;2.30;2.13;;;16.30;99.90;;;;;;5058313;28;20684;-94
2021/07/07 00:15:31;;;;;;;2.20;1.97;;;16.30;99.90;;;;;;5053841;28;20652;-95
2021/07/07 00:18:02;;;;;;;2.00;1.90;;;16.30;99.90;;;;;;5052313;28;20637;-94
2021/07/07 00:20:34;;;;;;;2.00;1.80;;;16.30;99.90;;;;;;5041502;28;20715;-96
2021/07/07 00:23:18;;;;;;;2.37;2.17;;;16.30;99.90;;;;;;5041028;28;20633;-95
2021/07/07 00:25:45;;;;;;;2.60;2.40;;;16.30;99.90;;;;;;5049857;28;20603;-95
2021/07/07 00:28:13;;;;;;;2.80;2.60;;;16.30;99.90;;;;;;5049527;28;20729;-95
2021/07/07 00:30:40;;;;;;;2.70;2.50;;;16.30;99.90;;;;;;5049929;28;21213;-94
2021/07/07 00:33:10;;;;;;;2.80;1.47;;;16.30;99.90;;;;;;5052040;28;20666;-93
2021/07/07 00:35:37;;;;;;;3.30;2.17;;;16.20;99.90;;;;;;5045411;28;20988;-95
2021/07/07 00:38:05;;;;;;;2.37;2.17;;;16.10;99.90;;;;;;5049084;28;20981;-95
2021/07/07 00:43:17;;;;;;;2.67;2.47;;;16.20;99.90;;;;;;5053518;28;20648;-95
2021/07/07 00:48:31;;;;;;;5.60;1.90;;;16.30;99.90;;;;;;5063404;28;20689;-94
2021/07/07 00:51:02;;;;;;;2.20;2.10;;;16.30;99.90;;;;;;5059617;28;20662;-95
2021/07/07 00:53:40;;;;;;;4.97;2.50;;;16.30;99.90;;;;;;5058466;28;20641;-96
2021/07/07 00:56:09;;;;;;;1.83;1.73;;;16.30;99.90;;;;;;5056528;28;20626;-95
2021/07/07 01:01:27;;;;;;;1.90;1.80;;;16.30;99.90;;;;;;5052604;28;20701;-95
2021/07/07 01:03:56;;;;;;;2.03;1.70;;;16.30;99.90;;;;;;5041421;28;20618;-96
2021/07/07 01:06:27;;;;;;;5.10;1.90;;;16.40;99.90;;;;;;5057500;28;20626;-96
2021/07/07 01:11:33;;;;;;;2.30;2.10;;;16.40;99.90;;;;;;5082137;26;20644;-94
2021/07/07 01:14:04;;;;;;;4.00;2.93;;;16.40;99.90;;;;;;5085773;28;21200;-94
2021/07/07 01:16:32;;;;;;;2.70;1.87;;;16.30;99.90;;;;;;5084375;28;20633;-94
2021/07/07 01:19:00;;;;;;;3.47;2.40;;;16.40;99.90;;;;;;5095156;28;20624;-95
2021/07/07 01:21:29;;;;;;;5.50;2.30;;;16.40;99.90;;;;;;5054853;28;20626;-94
2021/07/07 01:24:06;;;;;;;2.50;2.30;;;16.40;99.90;;;;;;5052557;28;20645;-95
2021/07/07 01:26:36;;;;;;;3.30;2.37;;;16.40;99.90;;;;;;5067677;28;20634;-95
2021/07/07 01:29:04;;;;;;;2.50;1.87;;;16.40;99.90;;;;;;5065297;28;20972;-95
2021/07/07 01:31:34;;;;;;;9.43;1.80;;;16.40;99.90;;;;;;5067052;28;20748;-95
2021/07/07 01:34:01;;;;;;;2.43;2.20;;;16.40;99.90;;;;;;5064724;28;21290;-95
2021/07/07 01:36:36;;;;;;;3.57;2.43;;;16.40;99.90;;;;;;5052923;28;20825;-95
2021/07/07 01:39:08;;;;;;;2.20;2.00;;;16.40;99.90;;;;;;5059586;28;20630;-95
2021/07/07 01:41:37;;;;;;;2.00;1.90;;;16.50;99.90;;;;;;5061360;28;20630;-95
2021/07/07 01:44:07;;;;;;;2.33;2.13;;;16.50;99.90;;;;;;5056319;28;20626;-96
2021/07/07 01:46:34;;;;;;;2.60;2.23;;;16.50;99.90;;;;;;5055151;28;20629;-96
2021/07/07 01:49:02;;;;;;;3.30;2.20;;;16.40;99.90;;;;;;5056184;28;20638;-95
2021/07/07 01:51:30;;;;;;;2.23;2.00;;;16.40;99.90;;;;;;5057941;28;20634;-95
2021/07/07 01:53:57;;;;;;;2.53;2.20;;;16.50;99.90;;;;;;5063021;28;20717;-95
2021/07/07 01:56:25;;;;;;;2.00;1.90;;;16.40;99.90;;;;;;5080050;28;20890;-95
2021/07/07 01:58:53;;;;;;;5.17;4.53;;;16.40;99.90;;;;;;5065105;28;20630;-95
2021/07/07 02:01:20;;;;;;;2.77;2.57;;;16.40;99.90;;;;;;5062903;28;20700;-96
2021/07/07 02:03:47;;;;;;;2.43;2.23;;;16.50;99.90;;;;;;5045374;28;20630;-96
2021/07/07 02:06:15;;;;;;;4.33;3.97;;;16.50;99.90;;;;;;5062787;28;20658;-94
2021/07/07 02:08:46;;;;;;;4.27;3.80;;;16.50;99.90;;;;;;5060139;28;20634;-95
2021/07/07 02:11:14;;;;;;;4.00;3.60;;;16.50;99.90;;;;;;5070273;28;20692;-95
2021/07/07 02:13:46;;;;;;;4.00;3.60;;;16.50;99.90;;;;;;5062746;28;20732;-96
2021/07/07 02:16:25;;;;;;;5.80;5.30;;;16.50;99.90;;;;;;5060027;28;20610;-95
2021/07/07 02:19:01;;;;;;;6.03;5.53;;;16.50;99.90;;;;;;5065290;28;20634;-95
2021/07/07 02:21:29;;;;;;;6.33;5.83;;;16.50;99.90;;;;;;5066596;28;20626;-95
2021/07/07 02:23:57;;;;;;;6.10;5.60;;;16.50;99.90;;;;;;5061402;28;21174;-95
2021/07/07 02:26:25;;;;;;;6.77;6.17;;;16.50;99.90;;;;;;5061772;28;20653;-94
2021/07/07 02:28:53;;;;;;;6.77;5.73;;;16.50;99.90;;;;;;5054033;28;20641;-94
2021/07/07 02:31:22;;;;;;;7.23;6.03;;;16.50;99.90;;;;;;5050988;28;20633;-94
2021/07/07 02:33:51;;;;;;;6.50;5.90;;;16.50;99.90;;;;;;5053153;28;20658;-93
2021/07/07 02:36:18;;;;;;;6.23;5.03;;;16.50;99.90;;;;;;5056090;28;20633;-94
2021/07/07 02:38:45;;;;;;;5.87;5.40;;;16.40;99.90;;;;;;5052434;28;20996;-95
2021/07/07 02:41:14;;;;;;;4.70;4.23;;;16.50;99.90;;;;;;5054337;28;20658;-96
2021/07/07 02:43:41;;;;;;;4.60;4.10;;;16.50;99.90;;;;;;5074199;28;20664;-95
2021/07/07 02:46:10;;;;;;;5.20;3.80;;;16.50;99.90;;;;;;5065186;28;20638;-95
2021/07/07 02:51:05;;;;;;;7.03;4.60;;;16.60;99.90;;;;;;5057868;28;20663;-95
2021/07/07 02:53:40;;;;;;;4.40;4.00;;;16.50;99.90;;;;;;5054958;28;20672;-96
2021/07/07 02:56:17;;;;;;;5.40;5.00;;;16.60;99.90;;;;;;5063409;28;20626;-96
2021/07/07 02:58:45;;;;;;;6.80;6.10;;;16.60;99.90;;;;;;5059554;28;20630;-95
2021/07/07 03:01:14;;;;;;;5.57;5.07;;;16.70;99.90;;;;;;5029826;28;20650;-95
2021/07/07 03:03:42;;;;;;;5.10;4.60;;;16.60;99.90;;;;;;5034293;28;20643;-96
2021/07/07 03:06:10;;;;;;;5.63;5.23;;;16.60;99.90;;;;;;5030675;28;20665;-96
2021/07/07 03:08:42;;;;;;;6.10;5.50;;;16.60;99.90;;;;;;5035805;28;20684;-96
2021/07/07 03:11:11;;;;;;;5.20;4.67;;;16.60;99.90;;;;;;5042572;28;20654;-96
2021/07/07 03:13:38;;;;;;;7.83;5.10;;;16.60;99.90;;;;;;5054217;28;20696;-96
2021/07/07 03:16:07;;;;;;;6.20;5.70;;;16.70;99.90;;;;;;5045012;28;20650;-96
2021/07/07 03:18:35;;;;;;;7.23;6.63;;;16.60;99.90;;;;;;5047947;28;20661;-95
2021/07/07 03:21:02;;;;;;;8.43;7.50;;;16.60;99.90;;;;;;5055586;28;21093;-96
2021/07/07 03:23:32;;;;;;;7.40;6.70;;;16.60;99.90;;;;;;5046202;28;20651;-96
2021/07/07 03:26:00;;;;;;;10.70;9.60;;;16.70;99.90;;;;;;5055413;28;20627;-96
2021/07/07 03:28:28;;;;;;;10.80;10.00;;;16.60;99.90;;;;;;5058089;28;20615;-95
2021/07/07 03:30:56;;;;;;;8.37;7.77;;;16.70;99.90;;;;;;5055741;28;20654;-96
2021/07/07 03:33:24;;;;;;;7.50;6.87;;;16.60;99.90;;;;;;5043067;28;20697;-96
2021/07/07 03:35:53;;;;;;;7.30;6.80;;;16.60;99.90;;;;;;5038168;28;20658;-95
2021/07/07 03:38:20;;;;;;;4.90;4.43;;;16.50;99.90;;;;;;5030798;28;20787;-94
2021/07/07 03:40:47;;;;;;;6.60;5.13;;;16.40;99.90;;;;;;5029968;28;21021;-94
2021/07/07 03:43:14;;;;;;;5.47;5.07;;;16.40;99.90;;;;;;5035387;28;20666;-94
2021/07/07 03:45:41;;;;;;;4.53;4.13;;;16.40;99.90;;;;;;5033415;28;20765;-95
2021/07/07 03:48:09;;;;;;;7.20;4.57;;;16.40;99.90;;;;;;5034272;28;20634;-95
2021/07/07 03:50:36;;;;;;;5.60;4.60;;;16.50;99.90;;;;;;5028462;28;21025;-96
2021/07/07 03:53:06;;;;;;;6.70;6.20;;;16.40;99.90;;;;;;5024161;28;20694;-95
2021/07/07 03:55:34;;;;;;;8.27;6.93;;;16.40;99.90;;;;;;5032370;28;21025;-95
2021/07/07 03:58:01;;;;;;;6.87;6.37;;;16.40;99.90;;;;;;5050608;28;20627;-94
2021/07/07 04:00:30;;;;;;;7.07;6.37;;;16.50;99.90;;;;;;5052547;28;20658;-95
2021/07/07 04:03:00;;;;;;;7.30;6.70;;;16.50;99.90;;;;;;5039103;28;20634;-94
2021/07/07 04:05:27;;;;;;;6.27;5.77;;;16.40;99.90;;;;;;5045806;28;20711;-94
2021/07/07 04:07:58;;;;;;;6.80;6.20;;;16.50;99.90;;;;;;5043657;28;20638;-94
2021/07/07 04:10:34;;;;;;;7.13;6.60;;;16.40;99.90;;;;;;5029966;28;20662;-95
2021/07/07 04:13:02;;;;;;;4.57;4.10;;;16.40;99.90;;;;;;5029837;28;20666;-95
2021/07/07 04:15:30;;;;;;;5.40;4.60;;;16.40;99.90;;;;;;5035432;28;20706;-95
2021/07/07 04:17:58;;;;;;;3.93;3.63;;;16.50;99.90;;;;;;5042101;28;20660;-95
2021/07/07 04:20:26;;;;;;;3.70;3.40;;;16.50;99.90;;;;;;5038348;28;20685;-95
2021/07/07 04:22:53;;;;;;;3.30;3.00;;;16.40;99.90;;;;;;5034028;28;20642;-95
2021/07/07 04:25:20;;;;;;;3.60;3.30;;;16.50;99.90;;;;;;5027174;28;20643;-95
2021/07/07 04:27:51;;;;;;;4.20;2.83;;;16.50;99.90;;;;;;5031074;28;20665;-95
2021/07/07 04:30:21;;;;;;;3.47;3.10;;;16.50;99.90;;;;;;5033333;28;20659;-95
2021/07/07 04:32:50;;;;;;;2.30;2.10;;;16.50;99.90;;;;;;5037305;28;20714;-95
2021/07/07 04:35:18;;;;;;;2.50;2.30;;;16.50;99.90;;;;;;5042844;28;20627;-95
2021/07/07 04:37:46;;;;;;;2.43;2.23;;;16.50;99.90;;;;;;5032051;28;20653;-95
2021/07/07 04:40:15;;;;;;;1.50;1.40;;;16.40;99.90;;;;;;5005721;28;21214;-95
2021/07/07 04:42:43;;;;;;;3.37;1.20;;;16.50;99.90;;;;;;5023590;28;20684;-94
2021/07/07 04:45:13;;;;;;;1.83;1.30;;;16.50;99.90;;;;;;5027522;28;20633;-94
2021/07/07 04:47:44;;;;;;;1.50;1.20;;;16.50;99.90;;;;;;5027996;28;20634;-95
2021/07/07 04:50:15;;;;;;;1.80;1.53;;;16.60;99.90;;;;;;5024935;28;21249;-95
2021/07/07 04:52:44;;;;;;;2.43;2.00;;;16.50;99.90;;;;;;5028196;28;20994;-95
2021/07/07 04:55:13;;;;;;;2.57;1.80;;;16.60;99.90;;;;;;5026782;28;20660;-94
2021/07/07 04:57:41;;;;;;;1.80;1.70;;;16.60;99.90;;;;;;5034246;28;20634;-95
2021/07/07 05:00:19;;;;;;;2.10;1.90;;;16.60;99.90;;;;;;5016456;28;20662;-94
2021/07/07 05:02:48;;;;;;;1.93;1.83;;;16.60;99.90;;;;;;5032732;28;20671;-95
2021/07/07 05:05:17;;;;;;;3.37;3.07;;;16.60;99.90;;;;;;5027217;28;20650;-95
2021/07/07 05:07:45;;;;;;;3.33;3.07;;;16.50;99.90;;;;;;5033777;28;20754;-95
2021/07/07 05:10:15;;;;;;;3.20;3.00;;;16.40;99.90;;;;;;5031999;28;20631;-95
2021/07/07 05:15:31;;;;;;;2.87;2.67;;;16.50;99.90;;;;;;5036486;28;20658;-94
2021/07/07 05:18:00;;;;;;;3.70;3.40;;;16.40;99.90;;;;;;5038301;28;20629;-95
2021/07/07 05:20:32;;;;;;;2.83;2.03;;;16.50;99.90;;;;;;5058646;28;20646;-95
2021/07/07 05:23:06;;;;;;;4.13;2.33;;;16.40;99.90;;;;;;5044843;28;21204;-95
2021/07/07 05:25:35;;;;;;;4.30;2.40;;;16.30;99.90;;;;;;5044975;28;20727;-95
2021/07/07 05:28:07;;;;;;;2.67;1.90;;;16.20;99.90;;;;;;5044106;28;20645;-96
2021/07/07 05:30:38;;;;;;;2.20;2.00;;;16.30;99.90;;;;;;5044387;28;21510;-96
2021/07/07 05:33:07;;;;;;;2.30;2.10;;;16.30;99.90;;;;;;5034497;28;20639;-95
2021/07/07 05:35:35;;;;;;;3.80;2.20;;;16.30;99.90;;;;;;5031303;28;20634;-95
2021/07/07 05:38:02;;;;;;;1.77;1.67;;;16.40;99.90;;;;;;5033889;28;21102;-96
2021/07/07 05:40:36;;;;;;;1.30;1.20;;;16.40;99.90;;;;;;5033961;28;20689;-95
2021/07/07 05:43:04;;;;;;;1.37;0.97;;;16.30;99.90;;;;;;5032086;28;20634;-95
2021/07/07 05:45:31;;;;;;;1.27;1.17;;;16.30;99.90;;;;;;5033078;28;20626;-94
2021/07/07 05:48:00;;;;;;;2.80;1.50;;;16.20;99.90;;;;;;5040343;28;20661;-94
2021/07/07 05:50:27;;;;;;;1.53;1.30;;;16.30;99.90;;;;;;5035345;28;21261;-94
2021/07/07 05:53:04;;;;;;;1.20;1.10;;;16.30;99.90;;;;;;5042543;28;20628;-95
2021/07/07 05:55:32;;;;;;;2.50;1.10;;;16.30;99.90;;;;;;5029329;28;20634;-94
2021/07/07 05:58:01;;;;;;;2.53;1.20;;;16.30;99.90;;;;;;5031849;28;20645;-94
2021/07/07 06:00:28;;;;;;;4.00;1.67;;;16.30;99.90;;;;;;5035206;28;20634;-95
2021/07/07 06:02:58;;;;;;;1.87;1.27;;;16.40;99.90;;;;;;5040819;28;20663;-95
2021/07/07 06:05:32;;;;;;;1.83;1.37;;;16.30;99.90;;;;;;5046259;28;20643;-94
2021/07/07 06:10:46;;;;;;;1.37;1.07;;;16.10;99.90;;;;;;5043990;28;20642;-94
2021/07/07 06:13:34;;;;;;;1.30;1.20;;;16.30;99.90;;;;;;5038311;28;20603;-94
2021/07/07 06:18:50;;;;;;;3.10;1.10;;;16.70;99.90;;;;;;5044745;28;20725;-96
2021/07/07 06:21:31;;;;;;;1.13;0.90;;;16.50;99.90;;;;;;5045959;28;20720;-95
2021/07/07 06:24:03;;;;;;;1.80;1.37;;;16.40;99.90;;;;;;5050854;28;20646;-94
2021/07/07 06:26:32;;;;;;;1.50;1.40;;;16.50;99.90;;;;;;5033870;28;21022;-95
2021/07/07 06:28:59;;;;;;;9.87;2.73;;;16.50;99.90;;;;;;5023928;28;21146;-95
2021/07/07 06:31:29;;;;;;;3.93;1.90;;;16.60;99.90;;;;;;5045750;28;20661;-94
2021/07/07 06:34:02;;;;;;;6.70;2.00;;;16.40;99.90;;;;;;5035679;28;20801;-95
2021/07/07 06:36:31;;;;;;;4.67;2.50;;;16.60;99.90;;;;;;5032974;28;20658;-95
2021/07/07 06:39:02;;;;;;;3.80;1.60;;;16.80;99.90;;;;;;5033732;28;20682;-95
2021/07/07 06:41:30;;;;;;;4.80;1.50;;;16.80;99.90;;;;;;5036513;28;21260;-95
2021/07/07 06:44:02;;;;;;;5.23;1.50;;;16.80;99.90;;;;;;5034584;28;20630;-95
2021/07/07 06:46:30;;;;;;;1.63;1.53;;;16.70;99.90;;;;;;5035297;28;20619;-95
2021/07/07 06:48:57;;;;;;;4.17;1.40;;;16.80;99.90;;;;;;5034227;28;20658;-95
2021/07/07 06:51:24;;;;;;;1.60;1.37;;;17.00;99.90;;;;;;5037834;28;20634;-95
2021/07/07 06:53:54;;;;;;;1.80;1.37;;;16.90;99.90;;;;;;5032448;28;20662;-94
2021/07/07 06:56:22;;;;;;;1.93;1.40;;;16.90;99.90;;;;;;5031020;28;20615;-94
2021/07/07 06:58:49;;;;;;;1.93;1.30;;;17.00;99.90;;;;;;5028500;28;20686;-93
2021/07/07 07:01:22;;;;;;;1.63;1.27;;;17.10;99.90;;;;;;5031167;28;21063;-96
2021/07/07 07:03:50;;;;;;;2.70;1.87;;;17.10;99.90;;;;;;5021764;28;20673;-93
2021/07/07 07:06:18;;;;;;;1.53;1.30;;;17.00;99.90;;;;;;5036124;28;21274;-96
2021/07/07 07:08:46;;;;;;;2.57;1.53;;;17.00;99.90;;;;;;5032043;28;20662;-96
2021/07/07 07:11:20;;;;;;;3.43;1.60;;;16.90;99.90;;;;;;5016659;28;20628;-95
2021/07/07 07:13:48;;;;;;;2.50;1.70;;;16.90;99.90;;;;;;5028888;28;20664;-95
2021/07/07 07:16:21;;;;;;;0.83;0.83;;;17.00;99.90;;;;;;5036135;28;20637;-95
2021/07/07 07:18:51;;;;;;;4.07;1.27;;;16.90;99.90;;;;;;5037679;28;21205;-95
2021/07/07 07:21:18;;;;;;;4.77;1.80;;;16.90;99.90;;;;;;5035256;28;21245;-95
2021/07/07 07:23:46;;;;;;;2.23;1.57;;;16.80;99.90;;;;;;5046004;28;20630;-93
2021/07/07 07:26:16;;;;;;;3.13;1.33;;;16.90;99.90;;;;;;5036964;28;20591;-93
2021/07/07 07:28:46;;;;;;;3.03;1.50;;;16.80;99.90;;;;;;5032369;28;20746;-94
2021/07/07 07:31:13;;;;;;;4.73;1.47;;;16.80;99.90;;;;;;5037788;28;21227;-93
2021/07/07 07:33:41;;;;;;;2.43;1.80;;;16.90;99.90;;;;;;5030999;28;21257;-92
2021/07/07 07:36:11;;;;;;;2.33;1.70;;;17.00;99.90;;;;;;5033313;28;20647;-94
2021/07/07 07:38:59;;;;;;;2.87;1.40;;;17.00;99.90;;;;;;5027471;28;20697;-94
2021/07/07 07:41:28;;;;;;;2.53;1.33;;;17.10;99.90;;;;;;5031499;28;20698;-93
2021/07/07 07:43:58;;;;;;;3.43;1.37;;;17.10;99.90;;;;;;5048451;28;20619;-94
2021/07/07 07:46:30;;;;;;;2.87;1.17;;;17.30;99.90;;;;;;5050482;28;21040;-95
2021/07/07 07:51:41;;;;;;;2.23;1.50;;;17.50;99.90;;;;;;5031991;28;20602;-93
2021/07/07 07:54:08;;;;;;;2.87;1.10;;;17.60;99.90;;;;;;5031914;28;20768;-94
2021/07/07 07:56:37;;;;;;;2.33;1.10;;;17.60;99.90;;;;;;5029726;28;20701;-93
2021/07/07 07:59:16;;;;;;;1.40;1.30;;;17.50;99.90;;;;;;5033733;28;20765;-94
2021/07/07 08:01:47;;;;;;;1.80;1.23;;;17.60;99.90;;;;;;5036242;28;20631;-94
2021/07/07 08:04:18;;;;;;;1.47;1.30;;;17.60;99.90;;;;;;5044688;28;20658;-94
2021/07/07 08:06:49;;;;;;;3.43;1.50;;;17.60;99.90;;;;;;5029726;28;20630;-95
2021/07/07 08:09:18;;;;;;;2.40;1.30;;;17.60;99.90;;;;;;5036924;28;20685;-94
2021/07/07 08:11:46;;;;;;;2.53;1.73;;;17.60;99.90;;;;;;5037637;28;20638;-93
2021/07/07 08:14:14;;;;;;;1.90;1.47;;;17.60;99.90;;;;;;5023673;28;20660;-94
2021/07/07 08:16:45;;;;;;;3.27;1.17;;;17.60;99.90;;;;;;5033625;28;21255;-95
2021/07/07 08:19:15;;;;;;;2.73;1.87;;;17.50;99.90;;;;;;5029952;28;20689;-95
2021/07/07 08:21:42;;;;;;;13.87;2.60;;;17.40;99.90;;;;;;5032689;28;20638;-94
2021/07/07 08:24:10;;;;;;;2.97;1.40;;;17.40;99.90;;;;;;5032863;28;20631;-95
2021/07/07 08:32:20;;;;;;;3.70;2.90;;;17.30;99.90;;;;;;5030006;28;20719;-93
2021/07/07 08:34:54;;;;;;;4.23;1.57;;;17.20;99.90;;;;;;5031077;28;21083;-94
2021/07/07 08:37:26;;;;;;;2.90;2.17;;;17.20;99.90;;;;;;5040431;28;20633;-94
2021/07/07 08:42:47;;;;;;;1.73;1.63;;;17.10;99.90;;;;;;5054897;28;20663;-93
2021/07/07 09:38:10;;;;;;;2.60;0.90;;;19.50;99.90;;;;;;5049973;28;20681;-96
2021/07/07 10:21:37;;;;;;;3.20;1.33;;;19.30;99.90;;;;;;5053566;28;20607;-94
2021/07/07 10:24:07;;;;;;;1.33;1.13;;;19.50;99.90;;;;;;5040977;28;20626;-96
2021/07/07 10:26:47;;;;;;;2.90;1.37;;;19.60;99.90;;;;;;5059486;28;20649;-96
2021/07/07 10:29:35;;;;;;;3.70;1.40;;;19.70;99.90;;;;;;5079038;22;20674;-96
2021/07/07 10:35:32;;;;;;;2.77;1.17;;;20.00;99.90;;;;;;5069599;28;20661;-96
2021/07/07 10:48:31;;;;;;;1.57;1.40;;;20.40;99.90;;;;;;5038681;28;20991;-96
2021/07/07 10:51:05;;;;;;;2.67;1.30;;;20.30;99.90;;;;;;5039038;28;20646;-96
2021/07/07 10:53:35;;;;;;;2.73;1.60;;;20.40;99.90;;;;;;5059301;28;20621;-95
2021/07/07 10:56:08;;;;;;;6.20;1.93;;;20.30;99.90;;;;;;5063347;28;20662;-96
2021/07/07 10:58:41;;;;;;;4.27;1.70;;;20.50;99.90;;;;;;5033376;28;21192;-96
2021/07/07 11:01:35;;;;;;;2.63;1.10;;;20.50;99.90;;;;;;5038329;28;21027;-95
2021/07/07 11:04:36;;;;;;;2.10;1.37;;;20.40;99.90;;;;;;5038698;28;20642;-96
2021/07/07 11:07:29;;;;;;;2.30;1.50;;;20.40;99.90;;;;;;5032732;28;20678;-94
2021/07/07 11:13:15;;;;;;;5.43;1.60;;;20.50;99.90;;;;;;5034800;28;21185;-96
2021/07/07 11:15:44;;;;;;;3.20;1.50;;;20.60;99.90;;;;;;5027557;28;20659;-96
2021/07/07 11:18:20;;;;;;;1.73;1.37;;;20.40;99.90;;;;;;5036891;28;20657;-96
2021/07/07 11:21:00;;;;;;;4.50;1.60;;;20.50;99.90;;;;;;5038153;28;20661;-95
2021/07/07 11:23:28;;;;;;;5.07;1.70;;;20.60;99.90;;;;;;5036211;28;21053;-96
2021/07/07 11:25:56;;;;;;;3.57;1.50;;;20.70;99.90;;;;;;5037238;28;20672;-96
2021/07/07 11:28:29;;;;;;;2.40;1.60;;;20.60;99.90;;;;;;5036510;28;20638;-96
2021/07/07 11:30:56;;;;;;;3.83;1.63;;;20.30;99.90;;;;;;5035015;28;20673;-96
2021/07/07 11:33:23;;;;;;;1.60;1.20;;;20.30;99.90;;;;;;5038608;28;20714;-95
2021/07/07 11:35:54;;;;;;;3.43;1.30;;;20.30;99.90;;;;;;5036119;28;20778;-95
2021/07/07 11:38:23;;;;;;;1.93;1.70;;;20.40;99.90;;;;;;5032507;28;21288;-96
2021/07/07 11:40:53;;;;;;;2.27;1.50;;;20.70;99.90;;;;;;5033655;28;20639;-94
2021/07/07 11:43:24;;;;;;;2.20;1.60;;;20.90;99.90;;;;;;5033251;28;20691;-96
2021/07/07 11:45:56;;;;;;;2.60;1.63;;;21.10;99.90;;;;;;5031778;28;20635;-96
2021/07/07 11:48:28;;;;;;;2.03;1.70;;;21.10;99.90;;;;;;5032876;28;20681;-96
2021/07/07 11:51:00;;;;;;;3.20;1.50;;;21.10;99.90;;;;;;5035684;28;20645;-96
2021/07/07 11:53:40;;;;;;;3.97;1.87;;;21.10;99.90;;;;;;5036666;28;20693;-96
2021/07/07 11:56:10;;;;;;;2.90;1.43;;;21.00;99.90;;;;;;5032451;28;20713;-94
2021/07/07 11:58:41;;;;;;;2.60;1.70;;;21.20;99.90;;;;;;5036930;28;20641;-95
2021/07/07 12:01:10;;;;;;;11.73;2.20;;;21.40;99.90;;;;;;5037656;28;21199;-96
2021/07/07 12:03:37;;;;;;;2.80;1.83;;;21.70;99.90;;;;;;5033642;28;20638;-95
2021/07/07 12:06:10;;;;;;;4.33;1.87;;;21.60;99.90;;;;;;5033408;28;20623;-96
2021/07/07 12:08:44;;;;;;;3.07;1.70;;;21.90;99.90;;;;;;5039535;28;20657;-95
2021/07/07 12:11:22;;;;;;;4.33;1.70;;;21.90;99.90;;;;;;5038654;28;20940;-96
2021/07/07 12:13:52;;;;;;;1.87;1.60;;;22.00;99.90;;;;;;5037099;28;20969;-96
2021/07/07 12:16:30;;;;;;;2.60;2.00;;;21.90;99.90;;;;;;5036344;28;21284;-96
2021/07/07 12:19:00;;;;;;;1.60;1.50;;;22.30;99.90;;;;;;5038352;28;20736;-96
2021/07/07 12:21:51;;;;;;;3.57;1.97;;;23.10;99.90;;;;;;5043174;28;21161;-96
2021/07/07 12:24:33;;;;;;;3.83;2.07;;;23.20;99.90;;;;;;5044242;28;20626;-96
2021/07/07 12:27:05;;;;;;;2.03;1.70;;;22.80;99.90;;;;;;5038198;28;20674;-96
2021/07/07 12:32:36;;;;;;;3.33;1.30;;;22.70;99.90;;;;;;5040088;28;20633;-96
2021/07/07 12:35:07;;;;;;;2.00;1.10;;;22.50;99.90;;;;;;5044900;28;20667;-95
2021/07/07 12:37:47;;;;;;;1.50;1.10;;;22.60;99.90;;;;;;5047272;28;21399;-96
2021/07/07 12:40:21;;;;;;;2.33;1.23;;;22.50;99.90;;;;;;5041389;28;20719;-96
2021/07/07 12:42:54;;;;;;;1.50;1.30;;;22.20;99.90;;;;;;5022739;28;20623;-96
2021/07/07 12:45:21;;;;;;;3.67;1.87;;;21.90;99.90;;;;;;5038432;28;20681;-96
2021/07/07 12:48:05;;;;;;;3.70;2.10;;;22.30;99.90;;;;;;5042612;28;20745;-96
2021/07/07 12:50:37;;;;;;;1.60;1.40;;;22.60;99.90;;;;;;5038524;28;20873;-96
2021/07/07 12:53:12;;;;;;;3.30;1.30;;;23.50;99.90;;;;;;5035480;28;20704;-96
2021/07/07 12:55:40;;;;;;;3.07;1.40;;;24.00;99.90;;;;;;5040241;28;20678;-96
2021/07/07 12:58:22;;;;;;;1.73;1.47;;;23.90;99.90;;;;;;5050191;28;21303;-95
2021/07/07 13:03:38;;;;;;;2.13;1.30;;;23.80;99.90;;;;;;5056330;28;20625;-95
2021/07/07 13:06:42;;;;;;;1.73;1.40;;;23.90;99.90;;;;;;5056108;28;20607;-95
2021/07/07 13:43:59;;;;;;;1.37;1.00;;;26.30;99.90;;;;;;5075622;26;20653;-96
2021/07/07 14:26:56;;;;;;;4.43;1.03;;;26.30;99.90;;;;;;5051300;28;20669;-96
2021/07/07 14:30:02;;;;;;;1.30;1.10;;;27.00;99.90;;;;;;5049069;28;20631;-96
2021/07/07 14:39:55;;;;;;;2.43;0.97;;;27.10;99.90;;;;;;5035326;28;20640;-96
2021/07/07 14:43:00;;;;;;;0.93;0.83;;;26.90;99.90;;;;;;5048534;28;20619;-96
2021/07/07 14:45:27;;;;;;;4.10;0.80;;;27.20;99.90;;;;;;5048552;28;20774;-95
2021/07/07 14:47:55;;;;;;;1.40;0.80;;;26.60;99.90;;;;;;5041733;28;20712;-95
2021/07/07 14:50:24;;;;;;;1.60;1.17;;;26.10;99.90;;;;;;5037260;28;20669;-95
2021/07/07 14:52:53;;;;;;;1.10;1.00;;;25.40;99.90;;;;;;5045181;28;20615;-95
2021/07/07 14:55:23;;;;;;;0.80;0.80;;;24.90;99.90;;;;;;5030166;28;20745;-96
2021/07/07 14:57:50;;;;;;;3.33;1.30;;;24.50;99.90;;;;;;5033875;28;20642;-95
2021/07/07 15:03:12;;;;;;;1.17;0.90;;;23.60;99.90;;;;;;5047583;28;20611;-96
2021/07/07 15:05:43;;;;;;;1.63;1.03;;;23.70;99.90;;;;;;5043057;28;20762;-96
2021/07/07 15:08:10;;;;;;;1.30;0.83;;;24.00;99.90;;;;;;5042944;28;20620;-96
2021/07/07 15:10:44;;;;;;;1.37;1.27;;;23.90;99.90;;;;;;5045984;28;20641;-96
2021/07/07 15:16:01;;;;;;;1.47;0.83;;;23.80;99.90;;;;;;5041035;28;20669;-95
2021/07/07 15:18:36;;;;;;;2.63;1.50;;;23.90;99.90;;;;;;5038506;28;20730;-95
2021/07/07 15:21:34;;;;;;;0.70;0.63;;;23.60;99.90;;;;;;5042242;28;20706;-96
2021/07/07 15:29:52;;;;;;;0.90;0.90;;;23.60;99.90;;;;;;5041828;28;20631;-96
2021/07/07 15:32:20;;;;;;;1.10;0.80;;;23.40;99.90;;;;;;5040895;28;20634;-95
2021/07/07 15:34:51;;;;;;;0.70;0.60;;;23.30;99.90;;;;;;5043059;28;20654;-95
2021/07/07 15:37:26;;;;;;;1.70;1.00;;;23.00;99.90;;;;;;5038440;28;20623;-95
2021/07/07 15:39:55;;;;;;;0.70;0.60;;;23.10;99.90;;;;;;5033049;28;20649;-94
2021/07/07 15:42:30;;;;;;;2.20;0.70;;;23.00;99.90;;;;;;5029811;28;20663;-93
2021/07/07 15:44:57;;;;;;;0.87;0.70;;;23.30;99.90;;;;;;5030332;28;20733;-94
2021/07/07 15:47:24;;;;;;;0.70;0.63;;;23.50;99.90;;;;;;5029256;28;20753;-94
2021/07/07 15:49:51;;;;;;;0.80;0.73;;;23.50;99.90;;;;;;5035136;28;20619;-93
2021/07/07 15:52:27;;;;;;;0.70;0.70;;;24.40;99.90;;;;;;5026293;28;20628;-94
2021/07/07 15:54:54;;;;;;;1.90;0.90;;;26.40;99.90;;;;;;5013735;28;20663;-95
2021/07/07 15:57:21;;;;;;;1.60;0.97;;;27.40;99.90;;;;;;5013724;28;20731;-96
2021/07/07 15:59:51;;;;;;;1.83;1.07;;;28.70;99.90;;;;;;5007168;28;20662;-96
2021/07/07 16:02:18;;;;;;;2.40;0.80;;;29.30;99.90;;;;;;5008212;28;20791;-95
2021/07/07 16:04:45;;;;;;;1.40;0.90;;;29.10;99.60;;;;;;5009743;28;20660;-95
2021/07/07 16:07:12;;;;;;;0.93;0.83;;;29.30;99.90;;;;;;5010300;28;20659;-95
2021/07/07 16:09:39;;;;;;;1.10;0.77;;;29.00;99.90;;;;;;5003321;28;20667;-95
2021/07/07 16:12:07;;;;;;;1.70;1.20;;;29.20;99.90;;;;;;5007848;28;20636;-96
2021/07/07 16:14:34;;;;;;;1.10;1.00;;;30.00;98.20;;;;;;5013877;28;20751;-95
2021/07/07 16:17:03;;;;;;;2.20;0.90;;;30.00;98.60;;;;;;5013702;28;20666;-96
2021/07/07 16:19:39;;;;;;;1.60;1.10;;;31.00;95.10;;;;;;5008038;28;20635;-96
2021/07/07 16:22:07;;;;;;;1.60;0.90;;;31.00;94.10;;;;;;5015436;28;20611;-95
2021/07/07 16:24:35;;;;;;;0.97;0.70;;;31.30;93.30;;;;;;5024878;28;20663;-95
2021/07/07 16:27:17;;;;;;;1.27;0.80;;;30.90;94.00;;;;;;5032637;28;20654;-96
2021/07/07 16:29:44;;;;;;;1.20;0.73;;;31.40;93.30;;;;;;5029089;28;20611;-96
2021/07/07 16:32:13;;;;;;;5.40;0.90;;;31.60;92.20;;;;;;5035046;28;20710;-95
2021/07/07 16:34:40;;;;;;;1.07;0.80;;;31.30;92.20;;;;;;5031848;28;20694;-95
2021/07/07 16:37:07;;;;;;;2.90;1.00;;;31.50;92.10;;;;;;5027780;28;20616;-96
2021/07/07 16:39:34;;;;;;;1.50;1.20;;;31.10;93.80;;;;;;5030368;28;20639;-96
2021/07/07 16:42:01;;;;;;;1.10;1.00;;;31.00;93.50;;;;;;5033043;28;20615;-95
2021/07/07 16:44:30;;;;;;;1.90;0.70;;;30.20;94.30;;;;;;5032943;28;20654;-94
2021/07/07 16:46:57;;;;;;;2.07;0.93;;;28.10;99.90;;;;;;5031441;28;20771;-94
2021/07/07 16:49:27;;;;;;;1.17;0.90;;;26.50;99.90;;;;;;5029559;28;20699;-94
2021/07/07 16:51:54;;;;;;;2.20;1.20;;;25.70;99.90;;;;;;5010893;28;20628;-94
2021/07/07 16:54:22;;;;;;;1.00;0.63;;;26.40;99.90;;;;;;5011536;28;20662;-95
2021/07/07 16:56:53;;;;;;;0.90;0.80;;;26.90;99.90;;;;;;5015917;28;20737;-95
2021/07/07 16:59:23;;;;;;;1.00;0.70;;;27.70;99.90;;;;;;5010454;28;20650;-94
2021/07/07 17:02:03;;;;;;;1.57;1.10;;;28.40;99.90;;;;;;5014789;28;20584;-95
2021/07/07 17:04:39;;;;;;;0.93;0.80;;;28.70;99.90;;;;;;5021756;28;20694;-94
2021/07/07 17:07:08;;;;;;;1.77;0.73;;;28.50;99.90;;;;;;5022501;28;20659;-95